Doyon, North Dakota
Current Conditions -  °F | °C
As of 6:15 AM on Sunday 21 Dec 2014 (Local Time) from KDVL Reporting Station
Clear Clear  
Wind Chill: 11°   Ceiling: Unl
Heat Index: 18°   Visibility: 9mi
Dew Point: 10°   Wind: 5mph
Humidity: 73%   Direction: 150°SSE
Pressure: 29.63"   Gusts: NA
Location:  48.0187°N, 98.6029°W
Report Text: KDVL 211215Z AUTO 15004KT 9SM CLR M08/M12 A2963 RMK AO1
Loading
Personal Weather Stations






























Interactive Weather Map New forecast layout! Learn more

10-Day Weather Forecast

Advertisements
Track Severe Weather on mobile